virtualACA

Welcome To Vancouver International Airport CYVR

Hub Roster

Pilot Domicile Rank
Brian Kozushka - ACA1102CanadaChief Pilot
Thomas Geoghegan - ACA1617United StatesChief Pilot
Jean-Michel Lazare - ACA2310FranceChief Pilot
Michael Schwartz - ACA2511United StatesFirst Officer
Walter John Houston - ACA2913AustraliaNew Hire
Russ Stubbs - ACA2950CanadaFirst Officer
Gary Fournerat - ACA3029United StatesFirst Officer
Tomas Hansson - ACA3047CanadaSecond Officer
Mike MCPHERSON - ACA3057CanadaSecond Officer

Current Vatsim Weather


CYVR 211700Z 17006KT 30SM FEW008 FEW120 FEW210 SCT230 14/08 A2993 RMK CF1AC1CI1CC1 CF TR LENT SLP137
Vancouver International Airport